| time (UTC) | temp F | wind direction | speed MPH | gust MPH | rain 1hr in | rain 24hr in | rain mn in | humidity % | barometer mb |
| 20260906201524 | 87 | 201 | 0.0 | 0.0 | 0.00 | 1.45 | 1.45 | 58 | 1017.8 |
| 20260906201023 | 87 | 190 | 2.0 | 5.0 | 0.00 | 1.45 | 1.45 | 57 | 1017.7 |
| 20260906200520 | 87 | 219 | 1.0 | 1.0 | 0.00 | 1.45 | 1.45 | 56 | 1018.1 |
| 20260906200015 | 87 | 164 | 0.0 | 2.0 | 0.00 | 1.45 | 1.45 | 57 | 1018.2 |
| 20260906195511 | 87 | 283 | 1.0 | 3.0 | 0.00 | 1.45 | 1.45 | 57 | 1018.3 |
| 20260906195007 | 88 | 186 | 1.0 | 2.0 | 0.00 | 1.45 | 1.45 | 56 | 1018.2 |
| 20260906194502 | 87 | 186 | 0.0 | 2.0 | 0.00 | 1.45 | 1.45 | 57 | 1018.1 |
| 20260906193958 | 87 | 187 | 1.0 | 1.0 | 0.00 | 1.45 | 1.45 | 57 | 1018.5 |
| 20260906193453 | 86 | 174 | 1.0 | 2.0 | 0.00 | 1.45 | 1.45 | 56 | 1018.5 |
| 20260906192948 | 86 | 133 | 0.0 | 2.0 | 0.00 | 1.45 | 1.45 | 58 | 1018.2 |
| 20260906192443 | 87 | 197 | 0.0 | 0.0 | 0.00 | 1.45 | 1.45 | 59 | 1018.4 |
| 20260906191942 | 86 | 163 | 0.0 | 0.0 | 0.00 | 1.45 | 1.45 | 61 | 1018.4 |
| 20260906191437 | 86 | 195 | 3.0 | 6.0 | 0.00 | 1.45 | 1.45 | 59 | 1018.5 |
| 20260906190936 | 86 | 178 | 5.0 | 8.0 | 0.00 | 1.45 | 1.45 | 59 | 1018.7 |
| 20260906190435 | 86 | 154 | 5.0 | 7.0 | 0.00 | 1.45 | 1.45 | 58 | 1018.6 |
| 20260906185930 | 85 | 193 | 0.0 | 2.0 | 0.00 | 1.45 | 1.45 | 61 | 1018.6 |
| 20260906185430 | 85 | 171 | 3.0 | 6.0 | 0.00 | 1.45 | 1.45 | 60 | 1018.7 |
| 20260906184929 | 85 | 213 | 2.0 | 3.0 | 0.00 | 1.45 | 1.45 | 61 | 1018.6 |
| 20260906184424 | 84 | 196 | 0.0 | 0.0 | 0.00 | 1.45 | 1.45 | 61 | 1018.8 |
| 20260906183919 | 85 | 174 | 5.0 | 7.0 | 0.00 | 1.45 | 1.45 | 61 | 1018.8 |
| 20260906183416 | 85 | 240 | 3.0 | 8.0 | 0.00 | 1.45 | 1.45 | 61 | 1018.9 |
| 20260906182911 | 84 | 249 | 0.0 | 0.0 | 0.00 | 1.45 | 1.45 | 64 | 1019.0 |
| 20260906182406 | 84 | 219 | 0.0 | 0.0 | 0.00 | 1.45 | 1.45 | 62 | 1018.9 |
| 20260906181901 | 85 | 219 | 0.0 | 0.0 | 0.00 | 1.45 | 1.45 | 63 | 1019.3 |
| 20260906181357 | 84 | 204 | 3.0 | 6.0 | 0.00 | 1.45 | 1.45 | 64 | 1019.3 |
| 20260906180853 | 84 | 243 | 4.0 | 7.0 | 0.00 | 1.45 | 1.45 | 64 | 1019.5 |
| 20260906180348 | 84 | 279 | 3.0 | 6.0 | 0.00 | 1.45 | 1.45 | 64 | 1019.3 |
| 20260906175845 | 83 | 290 | 2.0 | 5.0 | 0.00 | 1.45 | 1.45 | 65 | 1019.4 |
| 20260906175340 | 84 | 234 | 7.0 | 9.0 | 0.00 | 1.45 | 1.45 | 66 | 1019.7 |
| 20260906174839 | 83 | 156 | 2.0 | 3.0 | 0.00 | 1.45 | 1.45 | 66 | 1019.4 |
| 20260906174333 | 82 | 181 | 2.0 | 7.0 | 0.00 | 1.45 | 1.45 | 67 | 1019.5 |
| 20260906173828 | 82 | 276 | 0.0 | 0.0 | 0.00 | 1.45 | 1.45 | 69 | 1019.7 |
| 20260906173324 | 82 | 205 | 0.0 | 1.0 | 0.00 | 1.45 | 1.45 | 68 | 1019.6 |
| 20260906172823 | 82 | 181 | 6.0 | 8.0 | 0.00 | 1.45 | 1.45 | 69 | 1020.0 |
| 20260906172319 | 82 | 186 | 0.0 | 0.0 | 0.00 | 1.45 | 1.45 | 69 | 1019.8 |
| 20260906171814 | 82 | 206 | 0.0 | 0.0 | 0.00 | 1.45 | 1.45 | 68 | 1019.9 |
| 20260906171309 | 81 | 229 | 0.0 | 0.0 | 0.00 | 1.45 | 1.45 | 68 | 1020.1 |
| 20260906170804 | 81 | 226 | 0.0 | 2.0 | 0.00 | 1.45 | 1.45 | 68 | 1020.1 |
| 20260906170300 | 81 | 166 | 3.0 | 8.0 | 0.00 | 1.45 | 1.45 | 67 | 1020.0 |
| 20260906165756 | 81 | 194 | 1.0 | 3.0 | 0.00 | 1.45 | 1.45 | 69 | 1019.9 |
| 20260906165250 | 80 | 189 | 0.0 | 0.0 | 0.00 | 1.45 | 1.45 | 70 | 1020.2 |
| 20260906164749 | 80 | 198 | 1.0 | 2.0 | 0.00 | 1.45 | 1.45 | 71 | 1020.2 |
| 20260906164244 | 80 | 225 | 0.0 | 0.0 | 0.00 | 1.45 | 1.45 | 70 | 1019.9 |
| 20260906163740 | 80 | 221 | 1.0 | 3.0 | 0.00 | 1.45 | 1.45 | 70 | 1020.0 |
| 20260906163237 | 80 | 199 | 1.0 | 6.0 | 0.00 | 1.45 | 1.45 | 69 | 1020.1 |
| 20260906162733 | 80 | 160 | 0.0 | 0.0 | 0.00 | 1.45 | 1.45 | 71 | 1020.3 |
| 20260906162228 | 79 | 175 | 0.0 | 0.0 | 0.00 | 1.45 | 1.45 | 72 | 1020.1 |
| 20260906161722 | 79 | 180 | 1.0 | 5.0 | 0.00 | 1.45 | 1.45 | 74 | 1020.4 |
| 20260906161222 | 78 | 112 | 0.0 | 1.0 | 0.00 | 1.45 | 1.45 | 73 | 1020.4 |
| 20260906160720 | 77 | 167 | 0.0 | 0.0 | 0.00 | 1.45 | 1.45 | 76 | 1020.4 |
| 20260906160220 | 77 | 166 | 0.0 | 2.0 | 0.00 | 1.45 | 1.45 | 76 | 1020.3 |
| 20260906155718 | 77 | 209 | 2.0 | 5.0 | 0.00 | 1.45 | 1.45 | 77 | 1020.2 |
| 20260906155213 | 76 | 201 | 7.0 | 8.0 | 0.00 | 1.45 | 1.45 | 77 | 1019.8 |
| 20260906154708 | 76 | 191 | 10.0 | 13.0 | 0.00 | 1.45 | 1.45 | 78 | 1020.1 |
| 20260906154203 | 75 | 191 | 1.0 | 3.0 | 0.00 | 1.45 | 1.45 | 80 | 1020.1 |
| 20260906153701 | 75 | 168 | 7.0 | 9.0 | 0.00 | 1.45 | 1.45 | 80 | 1020.0 |
| 20260906153155 | 74 | 214 | 5.0 | 7.0 | 0.00 | 1.45 | 1.45 | 81 | 1020.0 |
| 20260906152651 | 74 | 176 | 6.0 | 7.0 | 0.00 | 1.45 | 1.45 | 82 | 1019.8 |
| 20260906152145 | 74 | 188 | 0.0 | 0.0 | 0.00 | 1.45 | 1.45 | 82 | 1020.1 |
| 20260906151640 | 73 | 181 | 0.0 | 1.0 | 0.00 | 1.45 | 1.45 | 82 | 1019.9 |
| 20260906151136 | 73 | 197 | 7.0 | 10.0 | 0.00 | 1.45 | 1.45 | 83 | 1019.9 |
| 20260906150631 | 73 | 209 | 8.0 | 10.0 | 0.00 | 1.45 | 1.45 | 83 | 1019.8 |
| 20260906150126 | 73 | 222 | 2.0 | 2.0 | 0.00 | 1.45 | 1.45 | 84 | 1020.0 |
| 20260906145625 | 73 | 235 | 2.0 | 3.0 | 0.00 | 1.45 | 1.45 | 85 | 1019.8 |
| 20260906145120 | 72 | 159 | 2.0 | 5.0 | 0.00 | 1.45 | 1.45 | 85 | 1020.0 |
| 20260906144614 | 72 | 191 | 4.0 | 6.0 | 0.00 | 1.45 | 1.45 | 86 | 1020.0 |
| 20260906144109 | 71 | 194 | 2.0 | 3.0 | 0.00 | 1.45 | 1.45 | 87 | 1020.2 |
| 20260906143609 | 71 | 139 | 5.0 | 6.0 | 0.00 | 1.45 | 1.45 | 88 | 1019.8 |
| 20260906143106 | 71 | 136 | 1.0 | 1.0 | 0.00 | 1.45 | 1.45 | 88 | 1019.7 |
| 20260906142605 | 70 | 125 | 0.0 | 0.0 | 0.00 | 1.45 | 1.45 | 89 | 1019.8 |
| 20260906142101 | 71 | 139 | 5.0 | 6.0 | 0.00 | 1.45 | 1.45 | 88 | 1019.8 |
| 20260906141559 | 71 | 111 | 1.0 | 1.0 | 0.00 | 1.45 | 1.45 | 87 | 1019.8 |
| 20260906141055 | 70 | 107 | 2.0 | 3.0 | 0.00 | 1.45 | 1.45 | 89 | 1019.7 |
| 20260906140554 | 69 | 130 | 2.0 | 2.0 | 0.00 | 1.45 | 1.45 | 91 | 1019.6 |
| 20260906140049 | 68 | 127 | 0.0 | 0.0 | 0.00 | 1.45 | 1.45 | 93 | 1019.9 |
| 20260906135546 | 68 | 144 | 0.0 | 0.0 | 0.00 | 1.45 | 1.45 | 94 | 1019.7 |
| 20260906135042 | 68 | 118 | 0.0 | 0.0 | 0.00 | 1.45 | 1.45 | 94 | 1019.8 |
| 20260906134537 | 67 | 134 | 0.0 | 0.0 | 0.00 | 1.45 | 1.45 | 94 | 1019.7 |
| 20260906134032 | 68 | 136 | 0.0 | 0.0 | 0.00 | 1.45 | 1.45 | 93 | 1019.9 |
| 20260906133528 | 68 | 154 | 0.0 | 0.0 | 0.00 | 1.45 | 1.45 | 93 | 1019.6 |
| 20260906133023 | 68 | 143 | 0.0 | 0.0 | 0.00 | 1.45 | 1.45 | 92 | 1019.9 |
| 20260906132518 | 68 | 123 | 1.0 | 1.0 | 0.00 | 1.45 | 1.45 | 92 | 1019.7 |
| 20260906132013 | 68 | 153 | 0.0 | 0.0 | 0.00 | 1.45 | 1.45 | 91 | 1019.5 |
| 20260906131509 | 68 | 151 | 0.0 | 0.0 | 0.00 | 1.45 | 1.45 | 90 | 1019.6 |
| 20260906131004 | 68 | 3 | 2.0 | 2.0 | 0.00 | 1.45 | 1.45 | 90 | 1019.1 |
| 20260906130504 | 69 | 118 | 0.0 | 1.0 | 0.00 | 1.45 | 1.45 | 89 | 1018.9 |
| 20260906125958 | 69 | 35 | 3.0 | 3.0 | 0.00 | 1.45 | 1.45 | 88 | 1019.0 |
| 20260906125455 | 69 | 49 | 6.0 | 8.0 | 0.00 | 1.45 | 1.45 | 86 | 1018.9 |
| 20260906124955 | 68 | 133 | 3.0 | 6.0 | 0.00 | 1.45 | 1.45 | 90 | 1018.4 |
| 20260906124451 | 67 | 34 | 4.0 | 6.0 | 0.00 | 1.45 | 1.45 | 93 | 1018.3 |
| 20260906123945 | 68 | 28 | 4.0 | 6.0 | 0.07 | 1.45 | 1.45 | 92 | 1017.6 |
| 20260906123444 | 67 | 117 | 7.0 | 10.0 | 0.07 | 1.45 | 1.45 | 93 | 1016.8 |
| 20260906122939 | 68 | 167 | 8.0 | 10.0 | 0.00 | 1.44 | 1.44 | 93 | 1016.8 |
| 20260906122434 | 67 | 158 | 6.0 | 8.0 | 0.00 | 1.44 | 1.44 | 93 | 1017.4 |
| 20260906121931 | 67 | 173 | 5.0 | 6.0 | 0.00 | 1.44 | 1.44 | 94 | 1018.4 |
| 20260906121427 | 67 | 190 | 0.0 | 0.0 | 0.00 | 1.44 | 1.44 | 94 | 1019.5 |
| 20260906120923 | 67 | 224 | 0.0 | 0.0 | 0.00 | 1.44 | 1.44 | 94 | 1019.5 |
| 20260906120419 | 67 | 168 | 0.0 | 0.0 | 0.00 | 1.44 | 1.44 | 94 | 1019.0 |
| 20260906115914 | 67 | 215 | 0.0 | 0.0 | 0.00 | 1.44 | 1.44 | 94 | 1019.4 |
| 20260906115410 | 67 | 167 | 0.0 | 0.0 | 0.00 | 1.44 | 1.44 | 93 | 1019.1 |
| 20260906114909 | 67 | 220 | 0.0 | 0.0 | 0.00 | 1.44 | 1.44 | 93 | 1018.7 |
| 20260906114404 | 67 | 161 | 0.0 | 0.0 | 0.00 | 1.44 | 1.44 | 93 | 1018.7 |
| 20260906113900 | 67 | 191 | 0.0 | 0.0 | 0.00 | 1.44 | 1.44 | 92 | 1018.6 |
| 20260906113358 | 67 | 94 | 4.0 | 5.0 | 0.00 | 1.44 | 1.44 | 92 | 1018.7 |
| 20260906112854 | 67 | 122 | 7.0 | 9.0 | 0.00 | 1.44 | 1.44 | 92 | 1018.6 |
| 20260906112350 | 67 | 112 | 3.0 | 5.0 | 0.00 | 1.44 | 1.44 | 93 | 1018.8 |
| 20260906111849 | 66 | 139 | 3.0 | 3.0 | 0.00 | 1.44 | 1.44 | 93 | 1018.6 |
| 20260906111344 | 66 | 154 | 2.0 | 6.0 | 0.00 | 1.44 | 1.44 | 94 | 1018.5 |
| 20260906110839 | 66 | 156 | 0.0 | 0.0 | 0.00 | 1.44 | 1.44 | 95 | 1018.6 |
| 20260906110335 | 66 | 146 | 0.0 | 1.0 | 0.00 | 1.44 | 1.44 | 96 | 1018.1 |
| 20260906105833 | 66 | 69 | 0.0 | 0.0 | 0.00 | 1.44 | 1.44 | 96 | 1018.2 |
| 20260906105329 | 65 | 104 | 0.0 | 0.0 | 0.00 | 1.44 | 1.44 | 96 | 1018.4 |
| 20260906104825 | 65 | 76 | 0.0 | 0.0 | 0.00 | 1.44 | 1.44 | 96 | 1018.4 |
| 20260906104323 | 65 | 148 | 0.0 | 1.0 | 0.00 | 1.44 | 1.44 | 96 | 1018.3 |
| 20260906103821 | 65 | 42 | 2.0 | 5.0 | 0.00 | 1.44 | 1.44 | 96 | 1016.9 |
| 20260906103315 | 65 | 129 | 6.0 | 9.0 | 0.00 | 1.44 | 1.44 | 97 | 1017.3 |
| 20260906102811 | 66 | 117 | 5.0 | 7.0 | 0.00 | 1.44 | 1.44 | 97 | 1017.5 |
| 20260906102310 | 66 | 116 | 5.0 | 7.0 | 0.00 | 1.44 | 1.44 | 97 | 1017.4 |
| 20260906101805 | 66 | 104 | 8.0 | 9.0 | 0.07 | 1.44 | 1.44 | 97 | 1016.8 |
| 20260906101306 | 66 | 125 | 13.0 | 21.0 | 0.07 | 1.44 | 1.44 | 97 | 1017.6 |
| 20260906100756 | 66 | 121 | 0.0 | 0.0 | 0.00 | 1.43 | 1.43 | 97 | 1017.8 |
| 20260906100254 | 66 | 109 | 0.0 | 0.0 | 0.00 | 1.43 | 1.43 | 97 | 1018.1 |
| 20260906095750 | 66 | 83 | 2.0 | 8.0 | 0.05 | 1.43 | 1.43 | 97 | 1017.9 |
| 20260906095245 | 66 | 84 | 0.0 | 1.0 | 0.05 | 1.43 | 1.43 | 97 | 1018.4 |
| 20260906094744 | 66 | 129 | 0.0 | 1.0 | 0.12 | 1.43 | 1.43 | 97 | 1018.5 |
| 20260906094240 | 66 | 119 | 0.0 | 1.0 | 0.12 | 1.42 | 1.42 | 98 | 1018.9 |
| 20260906093736 | 66 | 137 | 0.0 | 0.0 | 0.05 | 1.41 | 1.41 | 97 | 1019.4 |
| 20260906093231 | 66 | 144 | 0.0 | 0.0 | 0.24 | 1.40 | 1.40 | 97 | 1019.8 |
| 20260906092726 | 66 | 165 | 0.0 | 0.0 | 0.42 | 1.40 | 1.40 | 97 | 1020.3 |
| 20260906092220 | 66 | 149 | 0.0 | 0.0 | 0.66 | 1.36 | 1.36 | 97 | 1020.8 |
| 20260906091716 | 66 | 166 | 0.0 | 0.0 | 1.21 | 1.34 | 1.34 | 97 | 1021.1 |
| 20260906091207 | 66 | 35 | 0.0 | 0.0 | 2.39 | 1.26 | 1.26 | 97 | 1021.2 |
| 20260906090703 | 65 | 26 | 0.0 | 0.0 | 2.46 | 1.13 | 1.13 | 96 | 1022.0 |
| 20260906090202 | 65 | 33 | 0.0 | 0.0 | 1.87 | 0.86 | 0.86 | 96 | 1022.2 |
| 20260906085701 | 65 | 123 | 0.0 | 0.0 | 1.32 | 0.71 | 0.71 | 96 | 1021.9 |
| 20260906085200 | 65 | 341 | 0.0 | 0.0 | 0.59 | 0.55 | 0.55 | 95 | 1021.3 |
| 20260906084655 | 65 | 175 | 0.0 | 0.0 | 0.38 | 0.49 | 0.49 | 95 | 1020.8 |
| 20260906084155 | 65 | 335 | 0.0 | 1.0 | 0.31 | 0.45 | 0.45 | 95 | 1020.8 |
| 20260906083650 | 65 | 183 | 0.0 | 0.0 | 0.31 | 0.42 | 0.42 | 95 | 1020.9 |
| 20260906083145 | 65 | 3 | 0.0 | 0.0 | 0.12 | 0.39 | 0.39 | 94 | 1020.6 |
| 20260906082640 | 64 | 7 | 0.0 | 0.0 | 0.07 | 0.38 | 0.38 | 95 | 1020.2 |
| 20260906082136 | 64 | 343 | 3.0 | 6.0 | 0.05 | 0.37 | 0.37 | 95 | 1020.4 |
| 20260906081632 | 64 | 43 | 0.0 | 0.0 | 0.05 | 0.37 | 0.37 | 95 | 1020.4 |
| 20260906081126 | 64 | 280 | 1.0 | 2.0 | 0.12 | 0.37 | 0.37 | 95 | 1020.8 |
| 20260906080623 | 65 | 346 | 4.0 | 9.0 | 0.19 | 0.36 | 0.36 | 96 | 1020.9 |
| 20260906080119 | 65 | 222 | 0.0 | 0.0 | 0.31 | 0.35 | 0.35 | 96 | 1021.3 |
| 20260906075613 | 65 | 359 | 0.0 | 0.0 | 0.31 | 0.33 | 0.33 | 96 | 1021.3 |
| 20260906075108 | 65 | 320 | 0.0 | 0.0 | 0.24 | 0.31 | 0.31 | 96 | 1021.6 |
| 20260906074603 | 65 | 137 | 0.0 | 0.0 | 0.24 | 0.28 | 0.28 | 96 | 1022.0 |
| 20260906074101 | 65 | 280 | 0.0 | 0.0 | 0.54 | 0.27 | 0.27 | 95 | 1021.7 |
| 20260906073557 | 65 | 30 | 0.0 | 0.0 | 0.73 | 0.25 | 0.25 | 95 | 1021.3 |
| 20260906073052 | 66 | 89 | 0.0 | 1.0 | 1.02 | 0.19 | 0.19 | 95 | 1021.1 |
| 20260906072546 | 66 | 17 | 0.0 | 2.0 | 0.50 | 0.10 | 0.10 | 94 | 1021.4 |
| 20260906072043 | 66 | 223 | 0.0 | 0.0 | 0.05 | 0.02 | 0.02 | 93 | 1021.2 |
| 20260906071539 | 66 | 263 | 0.0 | 0.0 | 0.07 | 0.01 | 0.01 | 92 | 1021.0 |
| 20260906071034 | 67 | 234 | 0.0 | 0.0 | 0.07 | 0.01 | 0.01 | 91 | 1020.8 |
| 20260906070531 | 69 | 298 | 2.0 | 5.0 | 0.00 | 0.00 | 0.00 | 88 | 1021.3 |
| 20260906070026 | 69 | 254 | 1.0 | 2.0 | 0.00 | 0.00 | 0.00 | 87 | 1021.1 |
| 20260906065525 | 71 | 271 | 3.0 | 7.0 | 0.00 | 0.00 | 0.00 | 82 | 1021.2 |
| 20260906065021 | 77 | 196 | 7.0 | 20.0 | 0.00 | 0.00 | 0.00 | 80 | 1020.6 |
| 20260906064516 | 77 | 158 | 0.0 | 0.0 | 0.00 | 0.00 | 0.00 | 86 | 1019.1 |
| 20260906064011 | 77 | 158 | 0.0 | 0.0 | 0.00 | 0.00 | 0.00 | 86 | 1018.8 |
| 20260906063506 | 77 | 121 | 0.0 | 0.0 | 0.00 | 0.00 | 0.00 | 87 | 1018.6 |
| 20260906063002 | 77 | 43 | 0.0 | 0.0 | 0.00 | 0.00 | 0.00 | 87 | 1018.5 |
| 20260906062456 | 77 | 358 | 0.0 | 0.0 | 0.00 | 0.00 | 0.00 | 86 | 1018.4 |
| 20260906061951 | 77 | 99 | 0.0 | 0.0 | 0.00 | 0.00 | 0.00 | 86 | 1018.3 |
| 20260906061447 | 77 | 113 | 0.0 | 0.0 | 0.00 | 0.00 | 0.00 | 86 | 1018.6 |
| 20260906060941 | 78 | 148 | 0.0 | 0.0 | 0.00 | 0.00 | 0.00 | 85 | 1018.6 |
| 20260906060439 | 78 | 151 | 0.0 | 0.0 | 0.00 | 0.00 | 0.00 | 85 | 1018.2 |
| 20260906055935 | 78 | 136 | 0.0 | 0.0 | 0.00 | 0.00 | 0.00 | 85 | 1018.1 |
| 20260906055430 | 78 | 113 | 0.0 | 0.0 | 0.00 | 0.00 | 0.00 | 84 | 1018.1 |
| 20260906054926 | 78 | 109 | 0.0 | 0.0 | 0.00 | 0.00 | 0.00 | 84 | 1017.9 |
| 20260906054420 | 78 | 141 | 0.0 | 0.0 | 0.00 | 0.00 | 0.00 | 84 | 1018.2 |
| 20260906053916 | 78 | 146 | 0.0 | 0.0 | 0.00 | 0.00 | 0.00 | 84 | 1018.1 |
| 20260906053412 | 78 | 141 | 0.0 | 0.0 | 0.00 | 0.00 | 0.00 | 84 | 1018.4 |
| 20260906052908 | 78 | 142 | 0.0 | 0.0 | 0.00 | 0.00 | 0.00 | 84 | 1018.5 |
| 20260906052404 | 78 | 162 | 0.0 | 0.0 | 0.00 | 0.00 | 0.00 | 85 | 1018.2 |
| 20260906051901 | 78 | 130 | 0.0 | 0.0 | 0.00 | 0.00 | 0.00 | 85 | 1018.1 |
| 20260906051401 | 78 | 151 | 0.0 | 0.0 | 0.00 | 0.00 | 0.00 | 85 | 1018.1 |
| 20260906050856 | 78 | 152 | 0.0 | 0.0 | 0.00 | 0.00 | 0.00 | 85 | 1018.3 |
| 20260906050350 | 78 | 129 | 0.0 | 0.0 | 0.00 | 0.00 | 0.00 | 84 | 1017.6 |
| 20260906045850 | 78 | 107 | 0.0 | 0.0 | 0.00 | 0.00 | 0.00 | 84 | 1017.4 |
| 20260906045344 | 79 | 144 | 0.0 | 0.0 | 0.00 | 0.00 | 0.00 | 83 | 1017.5 |
| 20260906044840 | 79 | 119 | 0.0 | 0.0 | 0.00 | 0.00 | 0.00 | 83 | 1017.4 |
| 20260906044340 | 79 | 145 | 0.0 | 0.0 | 0.00 | 0.00 | 0.00 | 82 | 1017.5 |
| 20260906043836 | 79 | 137 | 0.0 | 0.0 | 0.00 | 0.00 | 0.00 | 83 | 1017.8 |
| 20260906043332 | 79 | 127 | 0.0 | 0.0 | 0.00 | 0.00 | 0.00 | 83 | 1017.8 |
| 20260906042827 | 79 | 136 | 0.0 | 0.0 | 0.00 | 0.00 | 0.00 | 83 | 1017.9 |
| 20260906042325 | 79 | 138 | 0.0 | 0.0 | 0.00 | 0.00 | 0.00 | 82 | 1018.4 |
| 20260906041821 | 79 | 136 | 0.0 | 0.0 | 0.00 | 0.00 | 0.00 | 82 | 1018.4 |
| 20260906041317 | 80 | 53 | 0.0 | 0.0 | 0.00 | 0.00 | 0.00 | 81 | 1018.3 |
| 20260906040811 | 80 | 117 | 0.0 | 0.0 | 0.00 | 0.00 | 0.00 | 81 | 1018.3 |
| 20260906040307 | 80 | 109 | 0.0 | 0.0 | 0.00 | 0.00 | 0.00 | 81 | 1018.2 |
| 20260906035802 | 80 | 80 | 0.0 | 1.0 | 0.00 | 0.00 | 0.00 | 80 | 1018.2 |
| 20260906035257 | 80 | 133 | 0.0 | 0.0 | 0.00 | 0.00 | 0.00 | 80 | 1018.3 |
| 20260906034757 | 81 | 101 | 0.0 | 0.0 | 0.00 | 0.00 | 0.00 | 79 | 1018.1 |
| 20260906034252 | 81 | 135 | 0.0 | 0.0 | 0.00 | 0.00 | 0.00 | 79 | 1018.4 |
| 20260906033748 | 81 | 132 | 0.0 | 0.0 | 0.00 | 0.00 | 0.00 | 78 | 1018.1 |
| 20260906033247 | 80 | 91 | 0.0 | 0.0 | 0.00 | 0.00 | 0.00 | 79 | 1018.1 |
| 20260906032744 | 80 | 129 | 0.0 | 0.0 | 0.00 | 0.00 | 0.00 | 79 | 1017.9 |
| 20260906032243 | 80 | 128 | 0.0 | 0.0 | 0.00 | 0.00 | 0.00 | 79 | 1017.9 |
| 20260906031739 | 80 | 125 | 0.0 | 0.0 | 0.00 | 0.00 | 0.00 | 79 | 1017.7 |
| 20260906031234 | 80 | 122 | 0.0 | 0.0 | 0.00 | 0.00 | 0.00 | 79 | 1017.7 |
| 20260906030729 | 80 | 136 | 0.0 | 0.0 | 0.00 | 0.00 | 0.00 | 78 | 1017.6 |
| 20260906030224 | 80 | 128 | 0.0 | 1.0 | 0.00 | 0.00 | 0.00 | 78 | 1017.6 |
| 20260906025723 | 81 | 116 | 0.0 | 0.0 | 0.00 | 0.00 | 0.00 | 78 | 1017.6 |
| 20260906025218 | 81 | 133 | 0.0 | 0.0 | 0.00 | 0.00 | 0.00 | 77 | 1017.3 |
| 20260906024717 | 81 | 121 | 0.0 | 0.0 | 0.00 | 0.00 | 0.00 | 76 | 1017.3 |
| 20260906024216 | 81 | 120 | 2.0 | 5.0 | 0.00 | 0.00 | 0.00 | 76 | 1017.5 |
| 20260906023712 | 81 | 113 | 0.0 | 0.0 | 0.00 | 0.00 | 0.00 | 76 | 1017.3 |
| 20260906023207 | 81 | 133 | 1.0 | 2.0 | 0.00 | 0.00 | 0.00 | 76 | 1017.2 |
| 20260906022702 | 82 | 106 | 0.0 | 0.0 | 0.00 | 0.00 | 0.00 | 76 | 1016.9 |
| 20260906022158 | 82 | 101 | 0.0 | 0.0 | 0.00 | 0.00 | 0.00 | 75 | 1016.8 |
| 20260906021654 | 82 | 120 | 0.0 | 0.0 | 0.00 | 0.00 | 0.00 | 75 | 1016.9 |
| 20260906021152 | 82 | 96 | 0.0 | 1.0 | 0.00 | 0.00 | 0.00 | 74 | 1016.6 |
| 20260906020647 | 82 | 132 | 0.0 | 1.0 | 0.00 | 0.00 | 0.00 | 74 | 1017.0 |
| 20260906020142 | 82 | 94 | 0.0 | 0.0 | 0.00 | 0.00 | 0.00 | 73 | 1017.2 |
| 20260906015636 | 82 | 117 | 0.0 | 0.0 | 0.00 | 0.00 | 0.00 | 73 | 1017.2 |
| 20260906015134 | 82 | 127 | 0.0 | 0.0 | 0.00 | 0.00 | 0.00 | 72 | 1017.4 |
| 20260906014629 | 82 | 137 | 0.0 | 0.0 | 0.00 | 0.00 | 0.00 | 72 | 1017.3 |
| 20260906014125 | 82 | 168 | 0.0 | 0.0 | 0.00 | 0.00 | 0.00 | 72 | 1017.4 |
| 20260906013620 | 83 | 123 | 0.0 | 0.0 | 0.00 | 0.00 | 0.00 | 71 | 1017.3 |
| 20260906013116 | 83 | 140 | 0.0 | 0.0 | 0.00 | 0.00 | 0.00 | 71 | 1017.1 |
| 20260906012611 | 83 | 135 | 0.0 | 0.0 | 0.00 | 0.00 | 0.00 | 70 | 1017.1 |
| 20260906012110 | 83 | 99 | 0.0 | 0.0 | 0.00 | 0.00 | 0.00 | 70 | 1017.2 |
| 20260906011606 | 83 | 33 | 0.0 | 0.0 | 0.00 | 0.00 | 0.00 | 70 | 1017.5 |
| 20260906011101 | 83 | 82 | 0.0 | 0.0 | 0.00 | 0.00 | 0.00 | 69 | 1017.3 |
| 20260906010556 | 83 | 163 | 0.0 | 0.0 | 0.00 | 0.00 | 0.00 | 68 | 1017.2 |
| 20260906010052 | 84 | 123 | 0.0 | 0.0 | 0.00 | 0.00 | 0.00 | 67 | 1017.1 |
| 20260906005551 | 84 | 103 | 0.0 | 0.0 | 0.00 | 0.00 | 0.00 | 67 | 1017.4 |
| 20260906005051 | 84 | 109 | 0.0 | 0.0 | 0.00 | 0.00 | 0.00 | 66 | 1017.5 |
| 20260906004550 | 84 | 95 | 0.0 | 0.0 | 0.00 | 0.00 | 0.00 | 65 | 1017.4 |
| 20260906004045 | 84 | 126 | 0.0 | 0.0 | 0.00 | 0.00 | 0.00 | 64 | 1017.6 |
| 20260906003540 | 85 | 106 | 0.0 | 0.0 | 0.00 | 0.00 | 0.00 | 64 | 1017.6 |
| 20260906003036 | 85 | 124 | 0.0 | 0.0 | 0.00 | 0.00 | 0.00 | 63 | 1017.6 |
| 20260906002531 | 85 | 101 | 0.0 | 0.0 | 0.00 | 0.00 | 0.00 | 63 | 1017.4 |
| 20260906002026 | 85 | 269 | 0.0 | 1.0 | 0.00 | 0.00 | 0.00 | 62 | 1017.2 |
| 20260906001521 | 86 | 34 | 0.0 | 0.0 | 0.00 | 0.00 | 0.00 | 62 | 1017.1 |
| 20260906001015 | 86 | 141 | 0.0 | 0.0 | 0.00 | 0.00 | 0.00 | 61 | 1016.8 |
| 20260906000512 | 86 | 110 | 0.0 | 0.0 | 0.00 | 0.00 | 0.00 | 61 | 1016.9 |
| 20260906000006 | 86 | 138 | 0.0 | 0.0 | 0.00 | 0.00 | 0.00 | 61 | 1016.9 |
| 20260905235500 | 87 | 126 | 0.0 | 0.0 | 0.00 | 0.00 | 0.00 | 60 | 1016.9 |
| 20260905234955 | 87 | 84 | 0.0 | 0.0 | 0.00 | 0.00 | 0.00 | 60 | 1016.8 |
| 20260905234450 | 87 | 114 | 1.0 | 2.0 | 0.00 | 0.00 | 0.00 | 59 | 1016.9 |
| 20260905233944 | 87 | 37 | 0.0 | 0.0 | 0.00 | 0.00 | 0.00 | 59 | 1017.1 |
| 20260905233440 | 88 | 95 | 0.0 | 1.0 | 0.00 | 0.00 | 0.00 | 58 | 1017.0 |
| 20260905232938 | 88 | 125 | 0.0 | 0.0 | 0.00 | 0.00 | 0.00 | 58 | 1016.8 |
| 20260905232435 | 89 | 67 | 0.0 | 2.0 | 0.00 | 0.00 | 0.00 | 56 | 1016.9 |
| 20260905231931 | 89 | 133 | 0.0 | 0.0 | 0.00 | 0.00 | 0.00 | 56 | 1016.9 |
| 20260905231426 | 90 | 134 | 0.0 | 1.0 | 0.00 | 0.00 | 0.00 | 55 | 1016.8 |
| 20260905230923 | 90 | 63 | 0.0 | 0.0 | 0.00 | 0.00 | 0.00 | 55 | 1016.5 |
| 20260905230420 | 90 | 132 | 0.0 | 0.0 | 0.00 | 0.00 | 0.00 | 55 | 1016.5 |
| 20260905225913 | 90 | 293 | 0.0 | 0.0 | 0.00 | 0.00 | 0.00 | 54 | 1016.3 |
| 20260905225409 | 89 | 97 | 0.0 | 0.0 | 0.00 | 0.00 | 0.00 | 55 | 1016.4 |
| 20260905224904 | 90 | 124 | 0.0 | 0.0 | 0.00 | 0.00 | 0.00 | 54 | 1016.3 |
| 20260905224359 | 90 | 109 | 0.0 | 0.0 | 0.00 | 0.00 | 0.00 | 54 | 1016.3 |
| 20260905223854 | 90 | 159 | 0.0 | 0.0 | 0.00 | 0.00 | 0.00 | 55 | 1016.1 |
| 20260905223351 | 90 | 97 | 0.0 | 0.0 | 0.00 | 0.00 | 0.00 | 54 | 1016.2 |
| 20260905222846 | 90 | 177 | 0.0 | 0.0 | 0.00 | 0.00 | 0.00 | 54 | 1016.0 |
| 20260905222344 | 90 | 119 | 0.0 | 1.0 | 0.00 | 0.00 | 0.00 | 54 | 1016.0 |
| 20260905221841 | 91 | 62 | 0.0 | 0.0 | 0.00 | 0.00 | 0.00 | 56 | 1016.0 |
| 20260905221337 | 90 | 151 | 1.0 | 3.0 | 0.00 | 0.00 | 0.00 | 56 | 1016.1 |
| 20260905220833 | 90 | 104 | 0.0 | 0.0 | 0.00 | 0.00 | 0.00 | 58 | 1016.2 |
| 20260905220329 | 90 | 161 | 0.0 | 0.0 | 0.00 | 0.00 | 0.00 | 57 | 1016.2 |
| 20260905215828 | 91 | 102 | 0.0 | 0.0 | 0.00 | 0.00 | 0.00 | 55 | 1016.1 |
| 20260905215324 | 91 | 177 | 0.0 | 0.0 | 0.00 | 0.00 | 0.00 | 54 | 1016.2 |
| 20260905214821 | 91 | 110 | 0.0 | 0.0 | 0.00 | 0.00 | 0.00 | 54 | 1016.3 |
| 20260905214315 | 91 | 51 | 0.0 | 0.0 | 0.00 | 0.00 | 0.00 | 54 | 1016.4 |
| 20260905213810 | 90 | 151 | 0.0 | 0.0 | 0.00 | 0.00 | 0.00 | 54 | 1016.5 |
| 20260905213307 | 90 | 81 | 0.0 | 0.0 | 0.00 | 0.00 | 0.00 | 55 | 1016.8 |
| 20260905212801 | 90 | 97 | 0.0 | 0.0 | 0.00 | 0.00 | 0.00 | 54 | 1016.9 |
| 20260905212301 | 89 | 166 | 0.0 | 0.0 | 0.00 | 0.00 | 0.00 | 55 | 1016.9 |
| 20260905211755 | 89 | 114 | 0.0 | 0.0 | 0.00 | 0.00 | 0.00 | 55 | 1017.1 |
| 20260905211250 | 89 | 41 | 0.0 | 0.0 | 0.00 | 0.00 | 0.00 | 54 | 1017.2 |
| 20260905210747 | 88 | 181 | 0.0 | 0.0 | 0.00 | 0.00 | 0.00 | 56 | 1017.2 |
| 20260905210247 | 89 | 86 | 0.0 | 0.0 | 0.00 | 0.00 | 0.00 | 55 | 1017.1 |
| 20260905205745 | 88 | 139 | 1.0 | 2.0 | 0.00 | 0.00 | 0.00 | 56 | 1017.5 |
| 20260905205241 | 89 | 142 | 0.0 | 0.0 | 0.00 | 0.00 | 0.00 | 55 | 1017.4 |
| 20260905204739 | 89 | 189 | 0.0 | 0.0 | 0.00 | 0.00 | 0.00 | 56 | 1017.4 |
| 20260905204235 | 90 | 130 | 1.0 | 1.0 | 0.00 | 0.00 | 0.00 | 55 | 1017.4 |
| 20260905203735 | 90 | 44 | 0.0 | 0.0 | 0.00 | 0.00 | 0.00 | 55 | 1017.4 |
| 20260905203231 | 89 | 179 | 0.0 | 1.0 | 0.00 | 0.00 | 0.00 | 56 | 1017.6 |
| 20260905202726 | 89 | 126 | 1.0 | 2.0 | 0.00 | 0.00 | 0.00 | 57 | 1017.7 |
| 20260905202221 | 88 | 37 | 0.0 | 0.0 | 0.00 | 0.00 | 0.00 | 58 | 1017.8 |